Time;durP1;ratioP1;P1;durP2;ratioP2;P2;SDS_P1;SDS_P2;PMS_P1;PMS_P2;Temp;Humidity;BMP_temperature;BMP_pressure;BME280_temperature;BME280_humidity;BME280_pressure;Samples;Min_cycle;Max_cycle;Signal;HPM_P1;HPM_P2
2022/10/22 00:00:17;;;;;;;4.60;2.30;;;14.60;99.90;;;;;;5066799;28;20032;-88
2022/10/22 00:02:43;;;;;;;2.22;2.05;;;14.60;99.90;;;;;;5083446;28;20036;-88
2022/10/22 00:05:09;;;;;;;2.97;2.65;;;14.60;99.90;;;;;;5049842;28;20093;-89
2022/10/22 00:07:35;;;;;;;2.55;2.13;;;14.60;99.90;;;;;;5039235;28;20037;-89
2022/10/22 00:10:03;;;;;;;2.63;2.40;;;14.60;99.90;;;;;;5086550;28;20025;-90
2022/10/22 00:12:29;;;;;;;2.45;2.13;;;14.60;99.90;;;;;;5069761;28;20390;-88
2022/10/22 00:14:54;;;;;;;4.07;2.92;;;14.60;99.90;;;;;;5086634;28;20054;-89
2022/10/22 00:17:20;;;;;;;3.50;3.10;;;14.50;99.90;;;;;;5062758;28;20072;-89
2022/10/22 00:19:46;;;;;;;8.00;4.20;;;14.50;99.90;;;;;;5034855;28;20029;-90
2022/10/22 00:22:12;;;;;;;3.17;2.88;;;14.50;99.90;;;;;;5082826;28;20045;-89
2022/10/22 00:24:39;;;;;;;3.38;2.95;;;14.50;99.90;;;;;;5076633;28;20032;-90
2022/10/22 00:27:06;;;;;;;6.75;2.88;;;14.50;99.90;;;;;;5085384;28;20032;-88
2022/10/22 00:29:33;;;;;;;2.97;2.55;;;14.50;99.90;;;;;;5069359;28;20040;-89
2022/10/22 00:31:59;;;;;;;6.80;3.13;;;14.50;99.90;;;;;;5069359;28;20040;-89
2022/10/22 00:34:25;;;;;;;4.60;2.92;;;14.50;99.90;;;;;;5077868;28;20029;-89
2022/10/22 00:36:51;;;;;;;2.40;2.00;;;14.50;99.90;;;;;;5066084;28;20092;-88
2022/10/22 00:39:19;;;;;;;5.85;3.67;;;14.50;99.90;;;;;;5065871;28;20566;-89
2022/10/22 00:41:47;;;;;;;5.13;2.65;;;14.40;99.90;;;;;;5049100;28;20059;-89
2022/10/22 00:44:51;;;;;;;5.50;2.97;;;14.50;99.90;;;;;;5072821;28;20461;-89
2022/10/22 00:47:18;;;;;;;5.72;2.83;;;14.40;99.90;;;;;;5085627;28;20043;-88
2022/10/22 00:49:46;;;;;;;2.78;2.58;;;14.40;99.90;;;;;;5069199;28;20029;-89
2022/10/22 00:52:12;;;;;;;6.03;3.10;;;14.50;99.90;;;;;;5068953;28;20028;-89
2022/10/22 00:54:41;;;;;;;3.45;3.15;;;14.40;99.90;;;;;;5055903;28;20037;-89
2022/10/22 00:57:07;;;;;;;2.27;2.10;;;14.50;99.90;;;;;;5029773;28;20018;-89
2022/10/22 00:59:34;;;;;;;7.30;3.08;;;14.40;99.90;;;;;;5045421;28;20025;-89
2022/10/22 01:02:00;;;;;;;2.70;2.50;;;14.40;99.90;;;;;;5029240;28;20104;-88
2022/10/22 01:04:26;;;;;;;4.97;2.78;;;14.40;99.90;;;;;;5055963;28;20052;-89
2022/10/22 01:06:52;;;;;;;3.13;2.00;;;14.40;99.90;;;;;;5068807;28;20036;-88
2022/10/22 01:09:32;;;;;;;3.00;2.70;;;14.40;99.90;;;;;;5085369;28;20024;-89
2022/10/22 01:12:40;;;;;;;8.02;3.95;;;14.40;99.90;;;;;;5066933;28;20035;-89
2022/10/22 01:15:41;;;;;;;4.70;2.60;;;14.40;99.90;;;;;;5084847;28;20049;-89
2022/10/22 01:18:19;;;;;;;8.02;3.60;;;14.30;99.90;;;;;;5001629;28;20044;-88
2022/10/22 01:20:47;;;;;;;3.40;3.17;;;14.30;99.90;;;;;;5081396;28;20032;-90
2022/10/22 01:23:42;;;;;;;9.35;3.65;;;14.30;99.90;;;;;;5065212;28;20064;-88
2022/10/22 01:26:32;;;;;;;4.07;2.53;;;14.30;99.90;;;;;;5021934;28;20065;-89
2022/10/22 01:29:05;;;;;;;4.60;3.83;;;14.30;99.90;;;;;;5065058;28;20456;-88
2022/10/22 01:31:37;;;;;;;6.07;2.65;;;14.30;99.90;;;;;;5076077;28;20029;-90
2022/10/22 01:34:05;;;;;;;4.88;2.38;;;14.30;99.90;;;;;;5068275;28;20060;-89
2022/10/22 01:36:33;;;;;;;3.70;2.33;;;14.30;99.90;;;;;;5086361;28;20024;-89
2022/10/22 01:39:01;;;;;;;4.25;3.20;;;14.30;99.90;;;;;;5067606;28;20036;-89
2022/10/22 01:41:28;;;;;;;4.53;2.08;;;14.30;99.90;;;;;;5074065;28;20067;-88
2022/10/22 01:43:54;;;;;;;3.58;2.50;;;14.30;99.90;;;;;;5048274;28;20033;-89
2022/10/22 01:46:22;;;;;;;10.88;3.22;;;14.30;99.90;;;;;;5048345;28;20036;-88
2022/10/22 01:49:03;;;;;;;3.42;2.35;;;14.30;99.90;;;;;;5064847;28;20098;-88
2022/10/22 01:52:11;;;;;;;3.45;2.97;;;14.30;99.90;;;;;;5074981;28;20025;-90
2022/10/22 01:55:00;;;;;;;6.50;3.50;;;14.30;99.90;;;;;;5071511;28;20063;-89
2022/10/22 01:57:38;;;;;;;2.58;2.20;;;14.30;99.90;;;;;;5085244;28;20095;-90
2022/10/22 02:00:09;;;;;;;4.93;2.28;;;14.30;99.90;;;;;;5084663;28;20032;-89
2022/10/22 02:02:44;;;;;;;3.10;2.63;;;14.30;99.90;;;;;;5066222;28;20040;-88
2022/10/22 02:05:31;;;;;;;10.63;3.55;;;14.30;99.90;;;;;;5065863;28;20029;-90
2022/10/22 02:08:10;;;;;;;7.18;3.08;;;14.30;99.90;;;;;;5081253;28;20033;-89
2022/10/22 02:10:39;;;;;;;8.23;2.92;;;14.30;99.90;;;;;;5067009;28;20033;-90
2022/10/22 02:13:08;;;;;;;12.15;2.15;;;14.20;99.90;;;;;;5067935;28;20020;-89
2022/10/22 02:15:37;;;;;;;6.15;2.65;;;14.30;99.90;;;;;;5068089;28;20029;-88
2022/10/22 02:18:04;;;;;;;7.88;3.70;;;14.20;99.90;;;;;;5084415;28;20036;-91
2022/10/22 02:20:36;;;;;;;7.28;2.67;;;14.30;99.90;;;;;;5066198;28;20084;-89
2022/10/22 02:23:03;;;;;;;2.00;1.80;;;14.30;99.90;;;;;;5084445;28;20040;-90
2022/10/22 02:25:38;;;;;;;8.13;2.53;;;14.20;99.90;;;;;;5084591;28;20048;-89
2022/10/22 02:28:22;;;;;;;8.45;3.05;;;14.20;99.90;;;;;;5084344;28;20056;-89
2022/10/22 02:30:56;;;;;;;7.28;3.15;;;14.20;99.90;;;;;;5080224;28;20033;-89
2022/10/22 02:33:30;;;;;;;5.00;3.22;;;14.20;99.90;;;;;;5064377;28;20025;-89
2022/10/22 02:35:58;;;;;;;4.68;2.17;;;14.30;99.90;;;;;;5064422;28;20025;-88
2022/10/22 02:38:25;;;;;;;4.45;2.53;;;14.20;99.90;;;;;;5047597;28;20017;-90
2022/10/22 02:40:51;;;;;;;5.38;3.22;;;14.20;99.90;;;;;;5069170;28;20088;-90
2022/10/22 02:43:18;;;;;;;6.00;3.35;;;14.20;99.90;;;;;;5067630;28;20143;-90
2022/10/22 02:45:45;;;;;;;5.90;3.75;;;14.20;99.90;;;;;;5084223;28;20052;-89
2022/10/22 02:48:11;;;;;;;5.07;2.25;;;14.20;99.90;;;;;;5067487;28;20047;-88
2022/10/22 02:50:37;;;;;;;3.85;2.60;;;14.20;99.90;;;;;;5083401;28;20040;-90
2022/10/22 02:53:03;;;;;;;7.32;2.58;;;14.20;99.90;;;;;;5067681;28;20036;-88
2022/10/22 02:55:29;;;;;;;7.75;3.38;;;14.20;99.90;;;;;;5051301;28;20033;-89
2022/10/22 02:57:55;;;;;;;6.35;2.53;;;14.20;99.90;;;;;;5051512;28;20029;-89
2022/10/22 03:00:21;;;;;;;8.07;3.08;;;14.20;99.90;;;;;;5034638;28;20027;-90
2022/10/22 03:02:47;;;;;;;6.13;2.95;;;14.20;99.90;;;;;;5087049;28;20032;-89
2022/10/22 03:05:13;;;;;;;3.58;2.42;;;14.30;99.90;;;;;;5071045;28;20063;-89
2022/10/22 03:07:39;;;;;;;7.53;2.70;;;14.20;99.90;;;;;;5070923;28;20027;-89
2022/10/22 03:10:05;;;;;;;5.55;2.95;;;14.20;99.90;;;;;;5087800;28;20068;-89
2022/10/22 03:12:31;;;;;;;3.42;2.78;;;14.20;99.90;;;;;;5050047;28;20506;-87
2022/10/22 03:14:57;;;;;;;3.88;2.25;;;14.20;99.90;;;;;;5067299;28;20057;-88
2022/10/22 03:17:23;;;;;;;16.15;2.80;;;14.20;99.90;;;;;;5084245;28;20039;-89
2022/10/22 03:19:49;;;;;;;8.93;1.92;;;14.20;99.90;;;;;;5067517;28;20029;-88
2022/10/22 03:22:22;;;;;;;6.97;3.28;;;14.20;99.90;;;;;;5048155;28;20020;-89
2022/10/22 03:24:52;;;;;;;5.25;2.17;;;14.20;99.90;;;;;;5070682;28;20028;-90
2022/10/22 03:27:20;;;;;;;3.78;2.55;;;14.20;99.90;;;;;;5087476;28;20048;-88
2022/10/22 03:29:48;;;;;;;8.45;3.40;;;14.20;99.90;;;;;;5070496;28;20024;-89
2022/10/22 03:32:14;;;;;;;5.35;2.85;;;14.20;99.90;;;;;;5039853;28;20037;-90
2022/10/22 03:34:40;;;;;;;3.95;1.80;;;14.20;99.90;;;;;;5067162;28;20071;-90
2022/10/22 03:37:06;;;;;;;5.38;2.28;;;14.20;99.90;;;;;;5050436;28;20017;-89
2022/10/22 03:39:34;;;;;;;4.55;2.55;;;14.20;99.90;;;;;;5067141;28;20104;-89
2022/10/22 03:42:02;;;;;;;4.30;1.95;;;14.20;99.90;;;;;;5079354;28;20028;-90
2022/10/22 03:44:29;;;;;;;6.05;2.90;;;14.20;99.90;;;;;;5070029;28;20367;-89
2022/10/22 03:46:55;;;;;;;5.47;3.15;;;14.20;99.90;;;;;;5086898;28;20024;-90
2022/10/22 03:49:21;;;;;;;5.65;3.15;;;14.20;99.90;;;;;;5087152;28;20033;-89
2022/10/22 03:51:47;;;;;;;7.95;2.55;;;14.20;99.90;;;;;;5059726;28;20093;-88
2022/10/22 03:54:14;;;;;;;5.47;2.30;;;14.20;99.90;;;;;;5083305;28;20059;-88
2022/10/22 03:56:40;;;;;;;5.22;2.42;;;14.20;99.90;;;;;;5066823;28;20075;-89
2022/10/22 03:59:05;;;;;;;2.78;1.70;;;14.20;99.90;;;;;;5073380;28;20021;-88
2022/10/22 04:01:31;;;;;;;3.17;2.92;;;14.20;99.90;;;;;;5069793;28;20028;-90
2022/10/22 04:03:58;;;;;;;8.63;3.00;;;14.20;99.90;;;;;;5086198;28;20187;-89
2022/10/22 04:06:24;;;;;;;7.78;3.38;;;14.20;99.90;;;;;;5069872;28;20024;-89
2022/10/22 04:08:50;;;;;;;5.40;2.83;;;14.20;99.90;;;;;;5081730;28;20029;-90
2022/10/22 04:11:16;;;;;;;6.70;3.17;;;14.20;99.90;;;;;;5066923;28;20036;-89
2022/10/22 04:13:42;;;;;;;4.95;2.90;;;14.20;99.90;;;;;;5049714;28;20025;-88
2022/10/22 04:16:10;;;;;;;5.80;2.60;;;14.30;99.90;;;;;;5082997;28;20116;-90
2022/10/22 04:18:37;;;;;;;2.13;1.90;;;14.20;99.90;;;;;;5068307;28;20051;-88
2022/10/22 04:21:03;;;;;;;9.85;3.15;;;14.20;99.90;;;;;;5086297;28;20032;-89
2022/10/22 04:23:29;;;;;;;4.60;3.17;;;14.30;99.90;;;;;;5087411;28;20030;-89
2022/10/22 04:26:03;;;;;;;6.35;2.90;;;14.20;99.90;;;;;;5086247;28;20427;-89
2022/10/22 04:28:29;;;;;;;6.07;2.78;;;14.30;99.90;;;;;;5068127;28;20056;-91
2022/10/22 04:30:56;;;;;;;8.15;2.47;;;14.20;99.90;;;;;;5085469;28;20025;-88
2022/10/22 04:33:21;;;;;;;4.57;3.40;;;14.20;99.90;;;;;;5069397;28;20037;-88
2022/10/22 04:35:47;;;;;;;2.13;1.92;;;14.20;99.90;;;;;;5086121;28;20025;-90
2022/10/22 04:38:13;;;;;;;2.75;2.03;;;14.20;99.90;;;;;;5069530;28;20033;-90
2022/10/22 04:40:39;;;;;;;4.00;2.38;;;14.20;99.90;;;;;;5064914;28;20144;-89
2022/10/22 04:43:05;;;;;;;6.22;2.85;;;14.20;99.90;;;;;;5065907;28;20024;-88
2022/10/22 04:45:35;;;;;;;3.22;2.38;;;14.20;99.90;;;;;;5052676;28;20059;-89
2022/10/22 04:48:01;;;;;;;5.07;2.65;;;14.20;99.90;;;;;;5065465;28;20029;-89
2022/10/22 04:50:27;;;;;;;2.65;2.05;;;14.20;99.90;;;;;;5048605;28;20051;-89
2022/10/22 04:52:53;;;;;;;3.03;2.78;;;14.30;99.90;;;;;;5065244;28;20040;-88
2022/10/22 04:55:19;;;;;;;4.38;2.63;;;14.20;99.90;;;;;;5048715;28;20029;-89
2022/10/22 04:57:45;;;;;;;4.25;2.08;;;14.20;99.90;;;;;;5064988;28;20043;-90
2022/10/22 05:00:11;;;;;;;5.80;2.70;;;14.20;99.90;;;;;;5048648;28;20394;-88
2022/10/22 05:02:37;;;;;;;5.22;2.00;;;14.20;99.90;;;;;;5045231;28;20026;-89
2022/10/22 05:05:03;;;;;;;12.40;4.43;;;14.20;99.90;;;;;;5044992;28;20068;-88
2022/10/22 05:07:29;;;;;;;6.85;2.22;;;14.20;99.90;;;;;;5046539;28;20085;-88
2022/10/22 05:09:55;;;;;;;6.47;2.63;;;14.20;99.90;;;;;;5051705;28;20059;-88
2022/10/22 05:12:21;;;;;;;6.13;2.90;;;14.20;99.90;;;;;;5035980;28;20137;-90
2022/10/22 05:14:46;;;;;;;2.65;2.33;;;14.20;99.90;;;;;;5048178;28;20048;-90
2022/10/22 05:17:12;;;;;;;9.45;2.60;;;14.20;99.90;;;;;;5048124;28;20028;-90
2022/10/22 05:19:38;;;;;;;3.47;2.05;;;14.20;99.90;;;;;;5031548;28;20100;-88
2022/10/22 05:22:04;;;;;;;11.95;3.03;;;14.20;99.90;;;;;;5064853;28;20033;-88
2022/10/22 05:24:33;;;;;;;1.83;1.73;;;14.20;99.90;;;;;;5028307;28;20032;-89
2022/10/22 05:26:59;;;;;;;6.80;2.40;;;14.20;99.90;;;;;;5054659;28;20029;-88
2022/10/22 05:29:26;;;;;;;5.18;2.25;;;14.20;99.90;;;;;;5048030;28;20513;-89
2022/10/22 05:31:52;;;;;;;5.32;2.60;;;14.20;99.90;;;;;;5048002;28;20021;-89
2022/10/22 05:34:18;;;;;;;5.85;2.78;;;14.20;99.90;;;;;;5063611;28;20037;-91
2022/10/22 05:36:44;;;;;;;2.28;2.08;;;14.20;99.90;;;;;;5065529;28;20036;-90
2022/10/22 05:39:10;;;;;;;5.10;2.08;;;14.20;99.90;;;;;;5055130;28;20021;-90
2022/10/22 05:41:37;;;;;;;6.63;2.88;;;;;;;;;;5047749;28;20033;-90
2022/10/22 05:44:04;;;;;;;7.97;2.85;;;14.20;99.90;;;;;;5048165;28;20029;-89
2022/10/22 05:46:34;;;;;;;4.72;2.22;;;14.20;99.90;;;;;;5047656;28;20519;-90
2022/10/22 05:49:02;;;;;;;4.38;2.50;;;14.20;99.90;;;;;;5064326;28;20029;-89
2022/10/22 05:51:31;;;;;;;2.75;1.73;;;14.20;99.90;;;;;;5047690;28;20017;-88
2022/10/22 05:53:59;;;;;;;8.43;2.80;;;14.20;99.90;;;;;;5047758;28;20029;-89
2022/10/22 05:56:26;;;;;;;6.35;2.05;;;14.20;99.90;;;;;;5064288;28;20028;-90
2022/10/22 05:58:52;;;;;;;11.48;2.75;;;14.20;99.90;;;;;;5047513;28;20017;-89
2022/10/22 06:01:27;;;;;;;3.38;1.90;;;14.20;99.90;;;;;;5031029;28;20025;-90
2022/10/22 06:03:54;;;;;;;13.48;3.00;;;14.20;99.90;;;;;;5047750;28;20029;-90
2022/10/22 06:06:30;;;;;;;2.08;1.42;;;14.20;99.90;;;;;;5064186;28;20029;-89
2022/10/22 06:09:06;;;;;;;7.80;2.88;;;14.20;99.90;;;;;;5064376;28;20112;-88
2022/10/22 06:11:32;;;;;;;5.47;2.80;;;14.20;99.90;;;;;;5078101;28;20448;-88
2022/10/22 06:13:57;;;;;;;11.27;3.03;;;14.20;99.90;;;;;;5084051;28;20059;-88
2022/10/22 06:16:23;;;;;;;4.90;1.95;;;14.20;99.90;;;;;;5079299;28;20081;-88
2022/10/22 06:18:49;;;;;;;9.27;2.58;;;;;;;;;;5066970;28;20040;-87
2022/10/22 06:21:16;;;;;;;6.47;2.03;;;;;;;;;;5064490;28;20029;-88
2022/10/22 06:23:43;;;;;;;3.95;2.28;;;;;;;;;;5047670;28;20055;-88
2022/10/22 06:26:09;;;;;;;4.15;1.60;;;;;;;;;;5067532;28;20029;-88
2022/10/22 06:28:36;;;;;;;3.05;1.60;;;14.20;99.90;;;;;;5068058;28;20063;-87
2022/10/22 06:31:02;;;;;;;5.30;2.35;;;14.20;99.90;;;;;;5068331;28;20029;-87
2022/10/22 06:33:30;;;;;;;4.35;2.30;;;14.20;99.90;;;;;;5068270;28;20051;-88
2022/10/22 06:36:04;;;;;;;4.05;2.25;;;14.20;99.90;;;;;;5068132;28;20103;-88
2022/10/22 06:38:31;;;;;;;5.20;2.15;;;;;;;;;;5061926;28;20021;-87
2022/10/22 06:41:02;;;;;;;7.15;2.13;;;14.20;99.90;;;;;;5085082;28;20035;-87
2022/10/22 06:43:28;;;;;;;6.97;2.28;;;14.20;99.90;;;;;;5076172;28;20036;-87
2022/10/22 06:46:01;;;;;;;13.52;2.17;;;14.20;99.90;;;;;;5087617;28;20505;-88
2022/10/22 06:48:27;;;;;;;15.27;3.95;;;;;;;;;;5081919;28;20036;-87
2022/10/22 06:50:53;;;;;;;3.67;2.63;;;14.20;99.90;;;;;;5075361;28;20032;-87
2022/10/22 06:53:19;;;;;;;14.50;3.83;;;;;;;;;;5082039;28;20033;-88
2022/10/22 06:55:46;;;;;;;4.38;2.55;;;;;;;;;;5067851;28;20455;-87
2022/10/22 06:58:12;;;;;;;5.05;2.15;;;14.20;99.90;;;;;;5068143;28;20021;-88
2022/10/22 07:00:38;;;;;;;9.18;2.38;;;;;;;;;;5058239;28;20029;-88
2022/10/22 07:03:05;;;;;;;10.70;2.53;;;;;;;;;;5067443;28;20045;-88
2022/10/22 07:05:33;;;;;;;6.40;1.85;;;14.20;99.90;;;;;;5051797;28;20025;-88
2022/10/22 07:07:59;;;;;;;9.43;1.98;;;;;;;;;;5050146;28;20432;-87
2022/10/22 07:10:25;;;;;;;6.50;2.03;;;14.20;99.90;;;;;;5084597;28;20033;-88
2022/10/22 07:12:51;;;;;;;13.30;3.08;;;;;;;;;;5074347;28;20013;-88
2022/10/22 07:15:17;;;;;;;9.68;2.53;;;;;;;;;;5087153;28;20108;-88
2022/10/22 07:17:44;;;;;;;2.90;1.38;;;;;;;;;;5071006;28;20039;-88
2022/10/22 07:20:11;;;;;;;3.08;2.20;;;14.20;99.90;;;;;;5069174;28;20021;-88
2022/10/22 07:22:37;;;;;;;10.55;2.97;;;;;;;;;;5084931;28;20021;-88
2022/10/22 07:25:03;;;;;;;4.88;2.38;;;14.20;99.90;;;;;;5081748;28;20025;-88
2022/10/22 07:27:29;;;;;;;6.10;2.25;;;14.30;99.90;;;;;;5063426;28;20124;-88
2022/10/22 07:29:55;;;;;;;2.30;1.98;;;14.20;99.90;;;;;;5076328;28;20025;-89
2022/10/22 07:32:22;;;;;;;3.05;1.55;;;;;;;;;;5067350;28;20033;-88
2022/10/22 07:34:48;;;;;;;11.40;2.53;;;;;;;;;;5071179;28;20052;-87
2022/10/22 07:37:13;;;;;;;5.93;1.73;;;14.30;99.90;;;;;;5065979;28;20037;-88
2022/10/22 07:39:39;;;;;;;7.95;3.15;;;14.30;99.90;;;;;;5050368;28;20045;-88
2022/10/22 07:42:06;;;;;;;8.35;2.55;;;;;;;;;;5070254;28;20428;-89
2022/10/22 07:44:32;;;;;;;10.45;2.83;;;;;;;;;;5074386;28;20033;-89
2022/10/22 07:46:58;;;;;;;3.80;2.00;;;14.30;99.90;;;;;;5066881;28;20123;-87
2022/10/22 07:49:24;;;;;;;3.55;1.88;;;14.30;99.90;;;;;;5051327;28;20041;-88
2022/10/22 07:51:51;;;;;;;4.93;2.13;;;;;;;;;;5066749;28;20048;-88
2022/10/22 07:54:18;;;;;;;3.65;1.58;;;14.30;99.90;;;;;;5086490;28;20033;-88
2022/10/22 07:56:44;;;;;;;6.00;2.97;;;;;;;;;;5077700;28;20033;-88
2022/10/22 07:59:10;;;;;;;7.00;2.28;;;14.40;99.90;;;;;;5067443;28;20070;-87
2022/10/22 08:01:35;;;;;;;4.30;1.63;;;14.40;99.90;;;;;;5064108;28;20108;-88
2022/10/22 08:04:01;;;;;;;16.42;2.88;;;;;;;;;;5069641;28;20025;-88
2022/10/22 08:06:27;;;;;;;6.15;2.47;;;14.40;99.90;;;;;;5069792;28;20464;-88
2022/10/22 08:08:54;;;;;;;6.03;1.77;;;;;;;;;;5085734;28;20063;-88
2022/10/22 08:11:20;;;;;;;3.30;2.33;;;;;;;;;;5057064;28;20040;-88
2022/10/22 08:13:46;;;;;;;2.40;1.55;;;;;;;;;;5067962;28;20085;-89
2022/10/22 08:16:13;;;;;;;3.00;1.52;;;14.50;99.90;;;;;;5069601;28;20036;-88
2022/10/22 08:18:39;;;;;;;10.93;1.90;;;;;;;;;;5061551;28;20029;-88
2022/10/22 08:21:05;;;;;;;3.22;1.80;;;14.50;99.90;;;;;;5049680;28;20025;-88
2022/10/22 08:23:33;;;;;;;15.70;2.65;;;;;;;;;;5083032;28;20033;-89
2022/10/22 08:25:58;;;;;;;1.02;1.02;;;14.60;99.90;;;;;;5083947;28;20028;-88
2022/10/22 08:28:27;;;;;;;2.28;1.08;;;14.60;99.90;;;;;;5066843;28;20532;-88
2022/10/22 08:30:53;;;;;;;7.75;1.63;;;14.60;99.90;;;;;;5077884;28;20083;-89
2022/10/22 08:33:19;;;;;;;7.80;2.17;;;;;;;;;;5049090;28;20544;-88
2022/10/22 08:35:50;;;;;;;4.75;2.22;;;14.60;99.90;;;;;;5049326;28;20040;-88
2022/10/22 08:38:17;;;;;;;3.60;1.45;;;14.70;99.90;;;;;;5066116;28;20458;-88
2022/10/22 08:40:47;;;;;;;3.53;1.90;;;14.70;99.90;;;;;;5072282;28;20029;-89
2022/10/22 08:43:37;;;;;;;8.98;2.92;;;14.70;99.90;;;;;;5086026;28;20036;-88
2022/10/22 08:46:11;;;;;;;10.15;2.05;;;14.70;99.90;;;;;;5049515;28;20032;-88
2022/10/22 08:49:19;;;;;;;5.60;2.40;;;14.70;99.90;;;;;;5066236;28;20049;-88
2022/10/22 08:51:45;;;;;;;8.48;1.67;;;14.80;99.90;;;;;;5020216;28;20030;-88
2022/10/22 08:54:30;;;;;;;6.07;2.35;;;14.80;99.90;;;;;;5022246;28;20038;-88
2022/10/22 08:57:08;;;;;;;9.15;2.92;;;14.80;99.90;;;;;;5031178;28;20044;-88
2022/10/22 09:00:05;;;;;;;2.22;1.52;;;14.80;99.90;;;;;;5085272;28;20104;-88
2022/10/22 09:03:18;;;;;;;15.50;2.85;;;14.90;99.90;;;;;;5036295;28;20492;-88
2022/10/22 09:06:31;;;;;;;6.72;2.42;;;14.90;99.90;;;;;;5067867;28;20035;-89
2022/10/22 09:09:00;;;;;;;6.97;2.25;;;14.90;99.90;;;;;;5044332;28;20033;-88
2022/10/22 09:11:33;;;;;;;4.90;2.45;;;14.90;99.90;;;;;;5076481;28;20029;-87
2022/10/22 09:14:00;;;;;;;2.78;2.30;;;;;;;;;;5064116;28;20025;-87
2022/10/22 09:17:20;;;;;;;10.13;2.85;;;15.00;99.90;;;;;;5072513;28;20050;-88
2022/10/22 09:20:14;;;;;;;4.97;1.35;;;15.00;99.90;;;;;;5085267;28;20025;-88
2022/10/22 09:23:09;;;;;;;4.78;2.22;;;15.00;99.90;;;;;;5049738;28;20036;-89
2022/10/22 09:25:36;;;;;;;6.93;2.90;;;15.00;99.90;;;;;;5048485;28;20098;-88
2022/10/22 09:28:03;;;;;;;6.93;2.08;;;14.90;99.90;;;;;;5070390;28;20108;-89
2022/10/22 09:30:33;;;;;;;4.07;1.55;;;15.10;99.90;;;;;;5083030;28;20067;-89
2022/10/22 09:33:05;;;;;;;13.73;2.13;;;15.10;99.90;;;;;;5072063;28;20032;-87
2022/10/22 09:35:33;;;;;;;7.57;2.83;;;15.10;99.90;;;;;;5074306;28;20072;-88
2022/10/22 09:38:06;;;;;;;8.43;3.38;;;15.10;99.90;;;;;;5066164;28;20031;-88
2022/10/22 09:40:45;;;;;;;7.68;2.55;;;15.10;99.90;;;;;;5082184;28;20032;-88
2022/10/22 09:43:13;;;;;;;7.60;4.35;;;15.10;99.90;;;;;;5066301;28;20021;-88
2022/10/22 09:45:40;;;;;;;5.80;2.53;;;15.20;99.90;;;;;;5081663;28;20119;-88
2022/10/22 09:48:33;;;;;;;3.22;2.70;;;15.20;99.90;;;;;;5064845;28;20035;-89
2022/10/22 09:51:20;;;;;;;6.22;2.35;;;15.20;99.90;;;;;;5070645;28;20393;-89
2022/10/22 09:53:54;;;;;;;5.70;2.65;;;15.20;99.90;;;;;;5086016;28;20024;-88
2022/10/22 09:56:26;;;;;;;7.20;2.17;;;15.10;99.90;;;;;;5084907;28;20028;-88
2022/10/22 09:58:55;;;;;;;5.35;2.00;;;15.20;99.90;;;;;;5084823;28;20040;-88
2022/10/22 10:01:29;;;;;;;5.45;2.25;;;15.20;99.90;;;;;;5057884;28;20029;-89
2022/10/22 10:04:03;;;;;;;5.30;2.83;;;15.20;99.90;;;;;;5047865;28;20111;-89
2022/10/22 10:06:32;;;;;;;6.43;3.08;;;15.20;99.90;;;;;;5065876;28;20036;-89
2022/10/22 10:09:02;;;;;;;6.40;1.47;;;15.20;99.90;;;;;;5048130;28;20039;-89
2022/10/22 10:11:35;;;;;;;2.07;1.03;;;15.30;99.90;;;;;;5074132;28;20089;-88
2022/10/22 10:14:25;;;;;;;7.82;2.95;;;15.20;99.90;;;;;;5084074;28;20362;-88
2022/10/22 10:16:59;;;;;;;2.60;1.48;;;15.30;99.90;;;;;;5067772;28;20028;-89
2022/10/22 10:19:43;;;;;;;4.05;1.42;;;15.30;99.90;;;;;;5067738;28;20032;-89
2022/10/22 10:22:16;;;;;;;7.93;2.90;;;15.30;99.90;;;;;;5067371;28;20033;-89
2022/10/22 10:25:01;;;;;;;7.32;1.58;;;15.40;99.90;;;;;;5060793;28;20668;-88
2022/10/22 10:27:46;;;;;;;3.13;1.40;;;15.40;99.90;;;;;;5057964;28;20049;-88
2022/10/22 10:30:24;;;;;;;5.32;1.20;;;15.40;99.90;;;;;;5063736;28;20093;-88
2022/10/22 10:33:02;;;;;;;3.88;0.98;;;15.40;99.90;;;;;;5064254;28;20131;-88
2022/10/22 10:35:34;;;;;;;7.97;1.17;;;15.50;99.90;;;;;;5063889;28;20263;-89
2022/10/22 10:38:00;;;;;;;4.25;2.50;;;;;;;;;;5063999;28;20036;-89
2022/10/22 10:40:49;;;;;;;4.43;2.22;;;15.60;99.90;;;;;;5047030;28;20021;-88
2022/10/22 10:43:31;;;;;;;5.78;1.70;;;15.60;99.90;;;;;;5063857;28;20029;-88
2022/10/22 10:46:34;;;;;;;5.95;1.98;;;15.70;99.90;;;;;;5043712;28;20164;-89
2022/10/22 10:49:08;;;;;;;3.80;1.98;;;15.70;99.90;;;;;;5039759;28;20037;-88
2022/10/22 10:51:52;;;;;;;6.05;2.10;;;15.60;99.90;;;;;;5063934;28;20021;-88
2022/10/22 10:54:38;;;;;;;4.65;2.22;;;15.60;99.90;;;;;;5065100;28;20121;-89
2022/10/22 10:57:29;;;;;;;15.77;2.78;;;15.70;99.90;;;;;;5063986;28;20036;-89
2022/10/22 11:00:04;;;;;;;5.68;2.10;;;15.70;99.90;;;;;;5063892;28;20029;-88
2022/10/22 11:02:49;;;;;;;6.88;2.58;;;15.70;99.90;;;;;;5063646;28;20063;-87
2022/10/22 11:05:27;;;;;;;6.72;3.13;;;15.80;99.90;;;;;;5063802;28;20494;-89
2022/10/22 11:07:58;;;;;;;5.53;2.15;;;15.70;99.90;;;;;;5063830;28;20029;-88
2022/10/22 11:10:51;;;;;;;3.25;2.08;;;15.80;99.90;;;;;;5064215;28;20425;-87
2022/10/22 11:13:17;;;;;;;4.97;2.97;;;15.80;99.90;;;;;;5080867;28;20054;-87
2022/10/22 11:15:54;;;;;;;3.45;1.95;;;15.80;99.90;;;;;;5069182;28;20028;-87
2022/10/22 11:18:33;;;;;;;3.40;2.38;;;15.80;99.90;;;;;;5070988;28;20032;-88
2022/10/22 11:21:38;;;;;;;6.72;2.95;;;15.80;99.90;;;;;;5070844;28;20031;-88
2022/10/22 11:24:24;;;;;;;2.03;1.42;;;15.80;99.90;;;;;;5008244;28;20041;-88
2022/10/22 11:27:01;;;;;;;6.22;2.75;;;15.80;99.90;;;;;;5056713;28;20028;-87
2022/10/22 11:29:40;;;;;;;7.63;1.98;;;15.90;99.90;;;;;;5059921;28;20414;-87
2022/10/22 11:32:18;;;;;;;7.03;2.25;;;16.00;99.90;;;;;;5071449;28;20032;-87
2022/10/22 11:34:47;;;;;;;6.55;1.98;;;16.00;99.90;;;;;;5057739;28;20059;-88
2022/10/22 11:37:14;;;;;;;4.00;1.52;;;16.10;99.90;;;;;;5085950;28;20028;-88
2022/10/22 11:39:54;;;;;;;12.45;1.90;;;16.10;99.90;;;;;;5052791;28;20029;-89
2022/10/22 11:42:32;;;;;;;;;;;16.10;99.90;;;;;;5056582;28;20466;-88
2022/10/22 11:45:02;;;;;;;5.70;2.10;;;16.10;99.90;;;;;;5070444;28;19915;-88
2022/10/22 11:47:50;;;;;;;6.18;1.88;;;16.10;99.90;;;;;;5070496;28;20032;-88
2022/10/22 11:50:39;;;;;;;10.70;2.90;;;16.10;99.90;;;;;;5087115;28;20055;-88
2022/10/22 11:53:25;;;;;;;3.22;0.82;;;16.00;99.90;;;;;;5070168;28;20477;-88
2022/10/22 11:55:58;;;;;;;4.75;1.17;;;16.00;99.90;;;;;;5086792;28;20029;-87
2022/10/22 11:58:27;;;;;;;10.93;2.17;;;16.10;99.90;;;;;;5086905;28;20025;-88
2022/10/22 12:00:56;;;;;;;9.30;1.92;;;16.20;99.90;;;;;;5070141;28;20017;-88
2022/10/22 12:03:31;;;;;;;8.35;1.85;;;16.40;99.90;;;;;;5088176;28;20028;-87
2022/10/22 12:06:12;;;;;;;8.30;1.45;;;16.40;99.90;;;;;;5069632;28;20032;-87
2022/10/22 12:08:44;;;;;;;5.70;2.83;;;16.50;99.90;;;;;;5086560;28;20036;-88
2022/10/22 12:11:10;;;;;;;8.35;2.25;;;16.50;99.90;;;;;;5086615;28;20046;-88
2022/10/22 12:13:57;;;;;;;1.90;1.50;;;16.60;99.90;;;;;;5066116;28;20029;-88
2022/10/22 12:16:52;;;;;;;13.75;2.45;;;16.60;99.90;;;;;;5066618;28;20116;-88
2022/10/22 12:19:21;;;;;;;4.57;1.27;;;16.70;99.90;;;;;;5043381;28;20062;-87
2022/10/22 12:22:13;;;;;;;9.57;2.38;;;16.70;99.90;;;;;;5066392;28;20021;-88
2022/10/22 12:24:46;;;;;;;1.77;1.55;;;16.60;99.90;;;;;;5045376;28;20032;-88
2022/10/22 12:27:22;;;;;;;9.05;3.35;;;16.50;99.90;;;;;;5072779;28;20142;-88
2022/10/22 12:29:54;;;;;;;7.50;2.60;;;16.40;99.90;;;;;;5066097;28;20044;-88
2022/10/22 12:32:20;;;;;;;4.35;1.83;;;16.40;99.90;;;;;;5066177;28;20029;-89
2022/10/22 12:34:48;;;;;;;3.80;1.33;;;16.40;99.90;;;;;;5058165;28;20444;-88
2022/10/22 12:37:15;;;;;;;3.38;1.83;;;16.40;99.90;;;;;;5057240;28;20079;-88
2022/10/22 12:39:43;;;;;;;1.42;1.13;;;16.30;99.90;;;;;;5033300;28;20136;-87
2022/10/22 12:42:17;;;;;;;9.43;1.48;;;16.30;99.90;;;;;;5049414;28;20025;-88
2022/10/22 12:44:43;;;;;;;7.03;1.65;;;16.30;99.90;;;;;;5066173;28;20033;-90
2022/10/22 12:47:16;;;;;;;7.18;1.73;;;16.30;99.90;;;;;;5049293;28;20028;-87
2022/10/22 12:49:45;;;;;;;3.78;1.90;;;16.30;99.90;;;;;;5049177;28;20048;-87
2022/10/22 12:52:18;;;;;;;2.43;1.50;;;16.30;99.90;;;;;;5049365;28;20371;-89
2022/10/22 12:54:49;;;;;;;1.48;1.23;;;16.30;99.90;;;;;;5049273;28;20029;-89
2022/10/22 12:57:17;;;;;;;3.15;1.27;;;16.30;99.90;;;;;;5049606;28;20057;-88
2022/10/22 12:59:46;;;;;;;6.82;1.77;;;16.40;99.90;;;;;;5065566;28;20029;-87
2022/10/22 13:02:20;;;;;;;6.68;2.20;;;16.70;99.90;;;;;;5065967;28;20036;-88
2022/10/22 13:05:19;;;;;;;4.18;2.00;;;16.70;99.90;;;;;;5052461;28;20024;-88
2022/10/22 13:07:52;;;;;;;3.17;1.63;;;16.90;99.90;;;;;;5062099;28;20066;-88
2022/10/22 13:10:23;;;;;;;8.32;1.92;;;16.90;99.90;;;;;;5084425;28;20029;-89
2022/10/22 13:12:54;;;;;;;6.40;2.30;;;16.90;99.90;;;;;;5085434;28;20115;-89
2022/10/22 13:15:26;;;;;;;5.72;1.85;;;16.80;99.90;;;;;;5068638;28;20056;-89
2022/10/22 13:18:14;;;;;;;3.03;1.60;;;16.70;99.90;;;;;;5081637;28;20033;-88